createdAt,value
2017-05-20T00:01:20.432Z,5.96
2017-05-20T00:03:50.331Z,5.72
2017-05-20T00:06:20.190Z,6.90
2017-05-20T00:08:49.884Z,5.16
2017-05-20T00:11:19.490Z,6.24
2017-05-20T00:13:49.791Z,6.48
2017-05-20T00:16:19.260Z,7.82
2017-05-20T00:18:48.155Z,9.88
2017-05-20T00:21:17.872Z,10.14
2017-05-20T00:23:47.531Z,14.62
2017-05-20T00:26:18.041Z,12.38
2017-05-20T00:28:47.387Z,9.62
2017-05-20T00:31:16.550Z,10.70
2017-05-20T00:33:47.080Z,10.86
2017-05-20T00:36:16.318Z,11.58
2017-05-20T00:38:46.613Z,10.86
2017-05-20T00:41:16.118Z,11.08
2017-05-20T00:43:45.557Z,15.22
2017-05-20T00:46:15.454Z,10.76
2017-05-20T00:48:44.913Z,9.74
2017-05-20T00:51:15.675Z,11.88
2017-05-20T00:53:45.193Z,9.62
2017-05-20T00:56:15.833Z,9.62
2017-05-20T00:58:45.290Z,11.58
2017-05-20T01:01:14.796Z,7.62
2017-05-20T01:03:44.395Z,8.76
2017-05-20T01:06:13.844Z,8.52
2017-05-20T01:08:44.225Z,7.70
2017-05-20T01:11:14.485Z,6.88
2017-05-20T01:13:43.954Z,7.30
2017-05-20T01:16:14.727Z,7.28
2017-05-20T01:18:44.338Z,6.22
2017-05-20T01:21:14.656Z,6.38
2017-05-20T01:23:44.755Z,7.12
2017-05-20T01:26:14.795Z,6.62
2017-05-20T01:28:44.709Z,8.72
2017-05-20T01:31:14.203Z,6.90
2017-05-20T01:33:44.786Z,11.28
2017-05-20T01:36:14.756Z,8.94
2017-05-20T01:38:44.454Z,8.14
2017-05-20T01:41:14.581Z,9.88
2017-05-20T01:43:44.188Z,8.28
2017-05-20T01:46:14.642Z,8.44
2017-05-20T01:48:44.286Z,10.50
2017-05-20T01:51:13.715Z,9.42
2017-05-20T01:53:43.560Z,9.44
2017-05-20T01:56:13.325Z,10.98
2017-05-20T01:58:42.769Z,10.30
2017-05-20T02:01:12.180Z,13.42
2017-05-20T02:03:41.837Z,13.04
2017-05-20T02:06:11.661Z,12.86
2017-05-20T02:08:41.643Z,11.94
2017-05-20T02:11:10.950Z,14.98
2017-05-20T02:13:42.192Z,13.30
2017-05-20T02:16:11.871Z,14.56
2017-05-20T02:18:42.673Z,13.20
2017-05-20T02:21:12.531Z,11.68
2017-05-20T02:23:43.664Z,11.08
2017-05-20T02:26:13.131Z,13.12
2017-05-20T02:28:42.916Z,11.48
2017-05-20T02:31:13.308Z,12.62
2017-05-20T02:33:42.505Z,10.78
2017-05-20T02:36:12.313Z,14.50
2017-05-20T02:38:43.157Z,8.74
2017-05-20T02:41:13.149Z,11.58
2017-05-20T02:43:44.122Z,11.82
2017-05-20T02:46:13.862Z,13.98
2017-05-20T02:48:43.910Z,9.82
2017-05-20T02:51:13.874Z,11.64
2017-05-20T02:53:42.468Z,10.86
2017-05-20T02:56:10.755Z,10.38
2017-05-20T02:58:39.067Z,12.52
2017-05-20T03:01:07.389Z,9.78
2017-05-20T03:03:35.695Z,7.22
2017-05-20T03:06:04.291Z,8.30
2017-05-20T03:08:32.580Z,6.70
2017-05-20T03:11:00.858Z,4.68
2017-05-20T03:13:29.490Z,6.28
2017-05-20T03:15:57.790Z,5.64
2017-05-20T03:18:25.738Z,4.98
2017-05-20T03:20:54.061Z,5.12
2017-05-20T03:23:22.348Z,5.40
2017-05-20T03:25:50.694Z,4.54
2017-05-20T03:28:19.207Z,3.40
2017-05-20T03:30:47.493Z,4.24
2017-05-20T03:33:15.823Z,4.02
2017-05-20T03:35:44.223Z,5.06
2017-05-20T03:38:12.531Z,4.40
2017-05-20T03:40:40.938Z,4.88
2017-05-20T03:43:09.395Z,4.50
2017-05-20T03:45:37.672Z,5.06
2017-05-20T03:48:05.966Z,4.38
2017-05-20T03:50:34.334Z,4.14
2017-05-20T03:53:02.777Z,4.48
2017-05-20T03:55:31.108Z,4.40
2017-05-20T03:57:59.387Z,4.52
2017-05-20T04:00:28.131Z,5.10
2017-05-20T04:02:56.600Z,4.40
2017-05-20T04:05:24.884Z,7.24
2017-05-20T04:07:53.427Z,4.30
2017-05-20T04:10:20.979Z,6.24
2017-05-20T04:12:49.320Z,3.70
2017-05-20T04:15:17.598Z,4.70
2017-05-20T04:17:46.081Z,5.56
2017-05-20T04:20:14.581Z,5.06
2017-05-20T04:22:42.870Z,5.16
2017-05-20T04:25:11.387Z,5.22
2017-05-20T04:27:39.711Z,6.46
2017-05-20T04:30:08.067Z,5.18
2017-05-20T04:32:36.420Z,4.50
2017-05-20T04:35:04.844Z,4.50
2017-05-20T04:37:33.137Z,4.04
2017-05-20T04:40:01.436Z,3.94
2017-05-20T04:42:29.767Z,4.66
2017-05-20T04:44:58.060Z,5.30
2017-05-20T04:47:25.621Z,4.44
2017-05-20T04:49:53.898Z,4.56
2017-05-20T04:52:22.176Z,4.18
2017-05-20T04:54:50.508Z,5.10
2017-05-20T04:57:18.812Z,3.88
2017-05-20T04:59:47.101Z,3.92
2017-05-20T05:02:15.441Z,4.30
2017-05-20T05:04:43.884Z,4.36
2017-05-20T05:07:12.185Z,6.36
2017-05-20T05:09:40.494Z,3.04
2017-05-20T05:12:08.775Z,4.22
2017-05-20T05:14:37.294Z,2.92
2017-05-20T05:17:05.574Z,2.84
2017-05-20T05:19:33.855Z,3.22
2017-05-20T05:22:02.195Z,2.92
2017-05-20T05:24:30.481Z,2.70
2017-05-20T05:26:58.772Z,2.84
2017-05-20T05:29:27.113Z,2.68
2017-05-20T05:31:55.455Z,3.42
2017-05-20T05:34:23.786Z,2.56
2017-05-20T05:36:52.116Z,3.56
2017-05-20T05:39:20.663Z,2.18
2017-05-20T05:41:49.176Z,2.80
2017-05-20T05:44:17.952Z,2.36
2017-05-20T05:46:46.375Z,3.62
2017-05-20T05:49:15.031Z,6.30
2017-05-20T05:51:43.363Z,3.00
2017-05-20T05:54:11.707Z,2.36
2017-05-20T05:56:40.061Z,2.80
2017-05-20T05:59:08.389Z,3.94
2017-05-20T06:01:36.681Z,2.46
2017-05-20T06:04:04.959Z,3.10
2017-05-20T06:06:33.323Z,3.60
2017-05-20T06:09:01.609Z,2.94
2017-05-20T06:11:29.931Z,4.46
2017-05-20T06:13:58.330Z,3.52
2017-05-20T06:16:26.644Z,2.66
2017-05-20T06:18:54.975Z,2.38
2017-05-20T06:21:23.401Z,3.20
2017-05-20T06:23:51.689Z,2.74
2017-05-20T06:26:20.020Z,3.10
2017-05-20T06:28:48.316Z,3.64
2017-05-20T06:31:16.972Z,2.94
2017-05-20T06:33:45.283Z,3.62
2017-05-20T06:36:14.592Z,3.80
2017-05-20T06:38:44.669Z,3.20
2017-05-20T06:41:14.347Z,4.10
2017-05-20T06:43:45.814Z,4.22
2017-05-20T06:46:15.405Z,4.78
2017-05-20T06:48:43.830Z,3.88
2017-05-20T06:51:12.199Z,4.00
2017-05-20T06:53:40.489Z,4.74
2017-05-20T06:56:08.824Z,4.12
2017-05-20T06:58:37.116Z,5.08
2017-05-20T07:01:05.707Z,4.44
2017-05-20T07:03:34.052Z,4.20
2017-05-20T07:06:02.340Z,3.36
2017-05-20T07:08:30.634Z,3.90
2017-05-20T07:10:58.973Z,3.58
2017-05-20T07:13:27.415Z,4.00
2017-05-20T07:15:55.748Z,4.18
2017-05-20T07:18:24.075Z,6.84
2017-05-20T07:20:52.381Z,4.52
2017-05-20T07:23:20.706Z,5.14
2017-05-20T07:25:49.043Z,4.66
2017-05-20T07:28:17.579Z,4.90
2017-05-20T07:30:46.237Z,5.36
2017-05-20T07:33:14.635Z,7.12
2017-05-20T07:35:43.025Z,5.08
2017-05-20T07:38:11.419Z,4.44
2017-05-20T07:40:39.855Z,5.04
2017-05-20T07:43:08.445Z,5.34
2017-05-20T07:45:37.055Z,6.08
2017-05-20T07:48:05.494Z,6.10
2017-05-20T07:50:33.966Z,5.56
2017-05-20T07:53:02.395Z,7.62
2017-05-20T07:55:30.834Z,8.38
2017-05-20T07:57:59.372Z,7.70
2017-05-20T08:00:27.949Z,7.74
2017-05-20T08:02:56.384Z,8.64
2017-05-20T08:05:24.710Z,9.56
2017-05-20T08:07:53.173Z,8.72
2017-05-20T08:10:21.601Z,6.92
2017-05-20T08:12:50.385Z,8.92
2017-05-20T08:15:19.047Z,7.50
2017-05-20T08:17:47.698Z,6.56
2017-05-20T08:20:16.465Z,7.24
2017-05-20T08:22:45.142Z,6.38
2017-05-20T08:25:13.672Z,7.88
2017-05-20T08:27:42.170Z,9.10
2017-05-20T08:30:11.534Z,9.58
2017-05-20T08:32:40.054Z,6.54
2017-05-20T08:35:08.578Z,8.76
2017-05-20T08:37:36.969Z,7.80
2017-05-20T08:40:05.418Z,7.16
2017-05-20T08:42:33.878Z,6.98
2017-05-20T08:45:02.456Z,8.94
2017-05-20T08:47:30.775Z,8.36
2017-05-20T08:49:59.189Z,7.70
2017-05-20T08:52:27.633Z,9.00
2017-05-20T08:54:55.973Z,8.16
2017-05-20T08:57:24.478Z,8.18
2017-05-20T08:59:54.317Z,8.68
2017-05-20T09:02:24.543Z,10.98
2017-05-20T09:04:53.538Z,7.94
2017-05-20T09:07:22.188Z,10.64
2017-05-20T09:09:50.550Z,8.22
2017-05-20T09:12:19.036Z,9.08
2017-05-20T09:14:47.338Z,7.90
2017-05-20T09:17:15.784Z,8.90
2017-05-20T09:19:43.463Z,7.98
2017-05-20T09:22:13.137Z,7.78
2017-05-20T09:24:44.064Z,8.86
2017-05-20T09:27:14.983Z,8.64
2017-05-20T09:29:43.872Z,9.56
2017-05-20T09:32:14.393Z,8.50
2017-05-20T09:34:45.892Z,8.18
2017-05-20T09:37:20.005Z,8.90
2017-05-20T09:39:49.519Z,8.04
2017-05-20T09:42:21.483Z,8.62
2017-05-20T09:44:52.393Z,8.72
2017-05-20T09:47:25.309Z,8.84
2017-05-20T09:49:54.868Z,10.70
2017-05-20T09:52:23.360Z,8.40
2017-05-20T09:54:51.732Z,7.64
2017-05-20T09:57:20.087Z,7.84
2017-05-20T09:59:49.118Z,12.62
2017-05-20T10:02:17.400Z,8.54
2017-05-20T10:04:45.998Z,8.04
2017-05-20T10:07:14.696Z,9.34
2017-05-20T10:09:42.998Z,7.28
2017-05-20T10:12:11.345Z,11.10
2017-05-20T10:14:39.671Z,7.82
2017-05-20T10:17:07.982Z,7.76
2017-05-20T10:19:36.301Z,8.70
2017-05-20T10:22:04.609Z,8.08
2017-05-20T10:24:32.927Z,6.48
2017-05-20T10:27:01.295Z,7.18
2017-05-20T10:29:29.621Z,9.38
2017-05-20T10:31:57.973Z,10.78
2017-05-20T10:34:26.254Z,8.80
2017-05-20T10:36:54.591Z,8.08
2017-05-20T10:39:22.885Z,8.16
2017-05-20T10:41:51.237Z,7.52
2017-05-20T10:44:19.597Z,7.02
2017-05-20T10:46:47.906Z,6.28
2017-05-20T10:49:16.228Z,7.44
2017-05-20T10:51:48.093Z,8.68
2017-05-20T10:54:17.311Z,7.22
2017-05-20T10:56:46.092Z,6.64
2017-05-20T10:59:14.749Z,7.68
2017-05-20T11:01:43.459Z,6.48
2017-05-20T11:04:12.139Z,7.62
2017-05-20T11:06:40.868Z,5.98
2017-05-20T11:09:09.757Z,6.12
2017-05-20T11:11:38.557Z,5.56
2017-05-20T11:14:06.965Z,5.82
2017-05-20T11:16:35.300Z,6.60
2017-05-20T11:19:03.673Z,6.82
2017-05-20T11:21:32.041Z,6.60
2017-05-20T11:24:06.615Z,5.44
2017-05-20T11:26:37.275Z,8.24
2017-05-20T11:29:16.845Z,5.86
2017-05-20T11:31:45.496Z,7.76
2017-05-20T11:34:13.949Z,5.86
2017-05-20T11:36:42.331Z,6.02
2017-05-20T11:39:10.709Z,6.12
2017-05-20T11:41:39.600Z,6.22
2017-05-20T11:44:07.931Z,6.18
2017-05-20T11:46:36.332Z,7.04
2017-05-20T11:49:04.804Z,8.74
2017-05-20T11:51:33.114Z,6.46
2017-05-20T11:54:01.460Z,8.08
2017-05-20T11:56:29.894Z,7.06
2017-05-20T11:58:58.307Z,6.64
2017-05-20T12:01:26.827Z,8.82
2017-05-20T12:03:55.267Z,6.84
2017-05-20T12:06:23.679Z,6.50
2017-05-20T12:08:54.739Z,7.30
2017-05-20T12:11:23.235Z,7.80
2017-05-20T12:13:51.639Z,8.66
2017-05-20T12:16:19.585Z,8.60
2017-05-20T12:18:48.144Z,7.60
2017-05-20T12:21:16.723Z,6.76
2017-05-20T12:23:45.116Z,7.50
2017-05-20T12:26:12.750Z,9.74
2017-05-20T12:28:41.107Z,8.98
2017-05-20T12:31:09.556Z,8.42
2017-05-20T12:33:38.053Z,8.52
2017-05-20T12:36:06.458Z,8.02
2017-05-20T12:38:34.750Z,9.12
2017-05-20T12:41:03.311Z,9.36
2017-05-20T12:43:31.655Z,9.40
2017-05-20T12:45:59.965Z,8.64
2017-05-20T12:48:28.272Z,11.52
2017-05-20T12:50:56.782Z,9.22
2017-05-20T12:53:25.072Z,9.18
2017-05-20T12:55:53.364Z,9.90
2017-05-20T12:58:21.825Z,9.64
2017-05-20T13:00:50.336Z,9.52
2017-05-20T13:03:18.672Z,11.16
2017-05-20T13:05:46.967Z,10.00
2017-05-20T13:08:15.819Z,10.58
2017-05-20T13:10:44.275Z,11.12
2017-05-20T13:13:12.566Z,8.86
2017-05-20T13:15:40.868Z,11.52
2017-05-20T13:18:09.201Z,10.70
2017-05-20T13:20:37.499Z,11.56
2017-05-20T13:23:05.829Z,10.96
2017-05-20T13:25:34.627Z,10.78
2017-05-20T13:28:02.922Z,11.70
2017-05-20T13:30:31.253Z,13.04
2017-05-20T13:32:59.944Z,10.10
2017-05-20T13:35:28.274Z,9.68
2017-05-20T13:37:56.812Z,8.76
2017-05-20T13:40:25.344Z,8.50
2017-05-20T13:42:54.470Z,9.52
2017-05-20T13:45:22.764Z,9.74
2017-05-20T13:47:51.367Z,10.70
2017-05-20T13:50:20.754Z,9.78
2017-05-20T13:52:49.057Z,10.76
2017-05-20T13:55:17.440Z,9.42
2017-05-20T13:57:45.032Z,9.86
2017-05-20T14:00:13.327Z,9.60
2017-05-20T14:02:41.656Z,8.98
2017-05-20T14:05:09.944Z,9.50
2017-05-20T14:07:38.272Z,9.82
2017-05-20T14:10:06.559Z,10.18
2017-05-20T14:12:34.863Z,9.04
2017-05-20T14:15:03.195Z,9.92
2017-05-20T14:17:31.496Z,9.28
2017-05-20T14:19:59.795Z,10.40
2017-05-20T14:22:28.129Z,10.90
2017-05-20T14:24:56.429Z,9.80
2017-05-20T14:27:24.755Z,11.36
2017-05-20T14:29:53.403Z,11.22
2017-05-20T14:32:21.704Z,12.86
2017-05-20T14:34:50.040Z,10.56
2017-05-20T14:37:18.344Z,10.58
2017-05-20T14:39:45.900Z,10.90
2017-05-20T14:42:14.215Z,12.84
2017-05-20T14:44:42.571Z,11.26
2017-05-20T14:47:10.932Z,8.90
2017-05-20T14:49:39.595Z,10.08
2017-05-20T14:52:07.908Z,10.36
2017-05-20T14:54:36.269Z,12.02
2017-05-20T14:57:04.677Z,10.88
2017-05-20T14:59:33.095Z,12.60
2017-05-20T15:02:01.423Z,9.28
2017-05-20T15:04:29.765Z,9.78
2017-05-20T15:06:58.072Z,11.40
2017-05-20T15:09:26.364Z,10.08
2017-05-20T15:11:54.701Z,15.04
2017-05-20T15:14:22.982Z,11.64
2017-05-20T15:16:50.627Z,11.86
2017-05-20T15:19:18.993Z,11.40
2017-05-20T15:21:47.533Z,10.46
2017-05-20T15:24:15.911Z,7.92
2017-05-20T15:26:44.254Z,8.44
2017-05-20T15:29:12.561Z,7.76
2017-05-20T15:31:40.851Z,8.12
2017-05-20T15:34:09.459Z,7.26
2017-05-20T15:36:37.752Z,8.22
2017-05-20T15:39:06.121Z,9.10
2017-05-20T15:41:34.465Z,9.06
2017-05-20T15:44:02.776Z,9.54
2017-05-20T15:46:31.101Z,8.40
2017-05-20T15:48:59.420Z,8.42
2017-05-20T15:51:27.992Z,8.70
2017-05-20T15:53:56.344Z,8.30
2017-05-20T15:56:24.649Z,11.80
2017-05-20T15:58:52.994Z,8.56
2017-05-20T16:01:21.296Z,8.50
2017-05-20T16:03:49.612Z,8.34
2017-05-20T16:06:18.310Z,8.28
2017-05-20T16:08:46.661Z,8.58
2017-05-20T16:11:14.999Z,9.44
2017-05-20T16:13:43.291Z,7.60
2017-05-20T16:16:11.878Z,9.40
2017-05-20T16:18:40.217Z,9.30
2017-05-20T16:21:08.576Z,7.26
2017-05-20T16:23:36.877Z,8.96
2017-05-20T16:26:05.267Z,7.88
2017-05-20T16:28:33.587Z,7.60
2017-05-20T16:31:02.212Z,9.40
2017-05-20T16:33:30.552Z,8.22
2017-05-20T16:35:58.853Z,7.68
2017-05-20T16:38:27.139Z,7.54
2017-05-20T16:40:55.657Z,6.24
2017-05-20T16:43:24.054Z,8.18
2017-05-20T16:45:52.452Z,7.50
2017-05-20T16:48:20.752Z,7.36
2017-05-20T16:50:49.316Z,6.78
2017-05-20T16:53:17.631Z,7.66
2017-05-20T16:55:45.940Z,6.74
2017-05-20T16:58:14.418Z,5.78
2017-05-20T17:00:42.917Z,6.06
2017-05-20T17:03:11.205Z,6.58
2017-05-20T17:05:39.544Z,6.44
2017-05-20T17:08:07.986Z,6.64
2017-05-20T17:10:36.275Z,6.10
2017-05-20T17:13:04.558Z,7.12
2017-05-20T17:15:33.539Z,7.22
2017-05-20T17:18:01.979Z,7.26
2017-05-20T17:20:30.304Z,7.32
2017-05-20T17:22:58.677Z,6.04
2017-05-20T17:25:27.074Z,6.70
2017-05-20T17:27:55.423Z,6.60
2017-05-20T17:30:23.720Z,6.98
2017-05-20T17:32:52.736Z,6.36
2017-05-20T17:35:21.109Z,6.78
2017-05-20T17:37:49.405Z,6.64
2017-05-20T17:40:17.752Z,8.12
2017-05-20T17:42:46.039Z,6.84
2017-05-20T17:45:14.513Z,11.24
2017-05-20T17:47:42.839Z,7.74
2017-05-20T17:50:11.137Z,7.60
2017-05-20T17:52:39.645Z,9.92
2017-05-20T17:55:07.972Z,7.06
2017-05-20T17:57:36.330Z,7.00
2017-05-20T18:00:04.869Z,7.72
2017-05-20T18:02:33.434Z,7.28
2017-05-20T18:05:01.731Z,6.96
2017-05-20T18:07:30.325Z,8.24
2017-05-20T18:09:58.628Z,7.82
2017-05-20T18:12:26.982Z,8.74
2017-05-20T18:14:55.277Z,7.22
2017-05-20T18:17:23.570Z,8.58
2017-05-20T18:19:52.054Z,8.14
2017-05-20T18:22:20.458Z,8.72
2017-05-20T18:24:48.743Z,10.18
2017-05-20T18:27:17.061Z,8.10
2017-05-20T18:29:45.711Z,11.10
2017-05-20T18:32:14.174Z,8.84
2017-05-20T18:34:42.477Z,12.76
2017-05-20T18:37:10.773Z,13.02
2017-05-20T18:39:39.160Z,11.18
2017-05-20T18:42:07.460Z,10.68
2017-05-20T18:44:35.750Z,9.02
2017-05-20T18:47:04.317Z,10.02
2017-05-20T18:49:32.915Z,13.86
2017-05-20T18:52:01.441Z,9.62
2017-05-20T18:54:29.717Z,11.98
2017-05-20T18:56:58.134Z,18.08
2017-05-20T18:59:26.488Z,13.22
2017-05-20T19:01:54.812Z,13.52
2017-05-20T19:04:23.105Z,12.74
2017-05-20T19:06:51.513Z,12.10
2017-05-20T19:09:19.909Z,11.52
2017-05-20T19:11:48.267Z,14.70
2017-05-20T19:14:16.560Z,12.56
2017-05-20T19:16:45.275Z,13.62
2017-05-20T19:19:13.592Z,13.16
2017-05-20T19:21:41.902Z,15.22
2017-05-20T19:24:10.263Z,14.38
2017-05-20T19:26:38.725Z,15.06
2017-05-20T19:29:07.019Z,14.02
2017-05-20T19:31:35.356Z,14.96
2017-05-20T19:34:03.667Z,13.02
2017-05-20T19:36:31.981Z,14.82
2017-05-20T19:38:59.567Z,14.80
2017-05-20T19:41:27.878Z,19.22
2017-05-20T19:43:56.503Z,12.88
2017-05-20T19:46:24.836Z,16.22
2017-05-20T19:48:53.136Z,14.36
2017-05-20T19:51:21.484Z,16.64
2017-05-20T19:53:49.837Z,21.26
2017-05-20T19:56:18.151Z,15.62
2017-05-20T19:58:46.452Z,20.36
2017-05-20T20:01:15.108Z,14.94
2017-05-20T20:03:43.401Z,14.74
2017-05-20T20:06:11.711Z,14.46
2017-05-20T20:08:40.254Z,21.72
2017-05-20T20:11:08.629Z,17.70
2017-05-20T20:13:36.936Z,24.00
2017-05-20T20:16:05.277Z,22.88
2017-05-20T20:18:33.763Z,23.40
2017-05-20T20:21:02.075Z,23.10
2017-05-20T20:23:30.659Z,21.34
2017-05-20T20:25:58.958Z,20.92
2017-05-20T20:28:27.303Z,22.84
2017-05-20T20:30:55.835Z,23.50
2017-05-20T20:33:24.127Z,24.92
2017-05-20T20:35:52.471Z,22.04
2017-05-20T20:38:21.358Z,23.06
2017-05-20T20:40:49.834Z,22.92
2017-05-20T20:43:18.217Z,24.30
2017-05-20T20:45:46.792Z,24.40
2017-05-20T20:48:15.212Z,28.14
2017-05-20T20:50:44.093Z,27.64
2017-05-20T20:53:12.451Z,28.08
2017-05-20T20:55:41.003Z,26.60
2017-05-20T20:58:09.475Z,25.90
2017-05-20T21:00:37.811Z,26.62
2017-05-20T21:03:06.278Z,28.62
2017-05-20T21:05:34.645Z,29.14
2017-05-20T21:08:02.983Z,28.06
2017-05-20T21:10:31.269Z,28.28
2017-05-20T21:13:00.273Z,27.42
2017-05-20T21:15:28.579Z,29.68
2017-05-20T21:17:56.881Z,31.78
2017-05-20T21:20:25.372Z,26.92
2017-05-20T21:22:53.695Z,25.56
2017-05-20T21:25:22.036Z,25.98
2017-05-20T21:27:50.330Z,26.78
2017-05-20T21:30:18.878Z,27.84
2017-05-20T21:32:47.229Z,28.04
2017-05-20T21:35:15.526Z,34.72
2017-05-20T21:37:44.045Z,33.44
2017-05-20T21:40:12.528Z,36.26
2017-05-20T21:42:40.829Z,36.58
2017-05-20T21:45:09.427Z,37.24
2017-05-20T21:47:37.971Z,32.28
2017-05-20T21:50:06.264Z,32.24
2017-05-20T21:52:34.595Z,30.24
2017-05-20T21:55:02.897Z,32.34
2017-05-20T21:57:30.495Z,29.26
2017-05-20T21:59:58.797Z,28.26
2017-05-20T22:02:27.096Z,27.00
2017-05-20T22:04:55.672Z,28.58
2017-05-20T22:07:23.972Z,27.66
2017-05-20T22:09:52.264Z,26.74
2017-05-20T22:12:20.729Z,25.24
2017-05-20T22:14:49.462Z,25.32
2017-05-20T22:17:17.775Z,27.36
2017-05-20T22:19:46.170Z,25.50
2017-05-20T22:22:14.053Z,31.48
2017-05-20T22:24:42.390Z,31.00
2017-05-20T22:27:10.689Z,28.12
2017-05-20T22:29:39.092Z,25.94
2017-05-20T22:32:07.446Z,28.88
2017-05-20T22:34:35.772Z,26.62
2017-05-20T22:37:04.109Z,24.18
2017-05-20T22:39:32.404Z,27.60
2017-05-20T22:42:00.780Z,28.98
2017-05-20T22:44:29.119Z,28.06
2017-05-20T22:46:57.406Z,27.88
2017-05-20T22:49:25.745Z,32.80
2017-05-20T22:51:54.072Z,27.12
2017-05-20T22:54:22.362Z,26.34
2017-05-20T22:56:50.839Z,27.66
2017-05-20T22:59:18.381Z,28.80
2017-05-20T23:01:46.690Z,27.42
2017-05-20T23:04:15.023Z,29.96
2017-05-20T23:06:43.648Z,32.20
2017-05-20T23:09:12.096Z,32.46
2017-05-20T23:11:40.431Z,35.96
2017-05-20T23:14:09.144Z,36.16
2017-05-20T23:16:37.473Z,34.66
2017-05-20T23:19:05.770Z,38.56
2017-05-20T23:21:34.074Z,33.04
2017-05-20T23:24:02.498Z,34.64
2017-05-20T23:26:30.783Z,36.04
2017-05-20T23:28:59.138Z,31.88
2017-05-20T23:31:27.725Z,33.42
2017-05-20T23:33:56.382Z,33.94
2017-05-20T23:36:25.056Z,31.12
2017-05-20T23:38:53.342Z,32.80
2017-05-20T23:41:21.690Z,32.74
2017-05-20T23:43:49.974Z,30.94
2017-05-20T23:46:18.323Z,29.64
2017-05-20T23:48:46.911Z,27.20
2017-05-20T23:51:15.315Z,29.02
2017-05-20T23:53:43.606Z,27.82
2017-05-20T23:56:12.214Z,27.90
2017-05-20T23:58:39.899Z,30.18
